createdAt,value
2017-10-24T00:00:58.421Z,11.00
2017-10-24T00:03:25.344Z,11.00
2017-10-24T00:05:51.553Z,11.00
2017-10-24T00:08:17.736Z,11.00
2017-10-24T00:10:44.688Z,10.90
2017-10-24T00:13:10.870Z,10.90
2017-10-24T00:15:37.102Z,10.90
2017-10-24T00:18:03.306Z,10.90
2017-10-24T00:20:30.237Z,10.90
2017-10-24T00:22:56.445Z,10.90
2017-10-24T00:25:22.627Z,10.90
2017-10-24T00:27:48.837Z,10.90
2017-10-24T00:30:15.025Z,10.90
2017-10-24T00:32:41.264Z,10.80
2017-10-24T00:35:07.493Z,10.90
2017-10-24T00:37:33.729Z,10.80
2017-10-24T00:39:59.937Z,10.80
2017-10-24T00:42:26.193Z,10.80
2017-10-24T00:44:52.384Z,10.80
2017-10-24T00:47:19.331Z,10.80
2017-10-24T00:49:46.290Z,10.80
2017-10-24T00:52:12.502Z,10.80
2017-10-24T00:54:39.458Z,10.90
2017-10-24T00:57:05.653Z,10.80
2017-10-24T00:59:31.869Z,10.80
2017-10-24T01:01:58.082Z,10.80
2017-10-24T01:04:24.314Z,10.80
2017-10-24T01:06:50.527Z,10.80
2017-10-24T01:09:16.761Z,10.80
2017-10-24T01:11:42.970Z,10.90
2017-10-24T01:14:09.197Z,10.90
2017-10-24T01:16:35.393Z,10.80
2017-10-24T01:19:02.354Z,10.90
2017-10-24T01:21:28.566Z,10.90
2017-10-24T01:23:55.542Z,11.00
2017-10-24T01:26:21.908Z,11.00
2017-10-24T01:28:48.133Z,11.00
2017-10-24T01:31:14.329Z,11.00
2017-10-24T01:33:40.549Z,11.00
2017-10-24T01:36:06.770Z,11.10
2017-10-24T01:38:33.012Z,11.00
2017-10-24T01:40:59.237Z,11.00
2017-10-24T01:43:25.457Z,11.00
2017-10-24T01:45:51.697Z,10.90
2017-10-24T01:48:17.897Z,10.90
2017-10-24T01:50:44.881Z,10.90
2017-10-24T01:53:11.081Z,10.90
2017-10-24T01:55:37.312Z,11.00
2017-10-24T01:58:03.504Z,11.10
2017-10-24T02:00:29.736Z,11.20
2017-10-24T02:02:55.945Z,11.30
2017-10-24T02:05:22.177Z,11.20
2017-10-24T02:07:48.382Z,11.10
2017-10-24T02:10:14.611Z,11.00
2017-10-24T02:12:40.841Z,10.90
2017-10-24T02:15:07.077Z,10.90
2017-10-24T02:17:33.317Z,10.90
2017-10-24T02:19:59.542Z,10.90
2017-10-24T02:22:25.761Z,10.80
2017-10-24T02:24:52.101Z,10.80
2017-10-24T02:27:18.309Z,10.80
2017-10-24T02:29:44.537Z,10.80
2017-10-24T02:32:10.783Z,10.80
2017-10-24T02:34:37.134Z,10.80
2017-10-24T02:37:03.333Z,10.70
2017-10-24T02:39:29.758Z,10.80
2017-10-24T02:41:55.953Z,10.90
2017-10-24T02:44:22.161Z,10.80
2017-10-24T02:46:49.107Z,10.80
2017-10-24T02:49:16.085Z,10.90
2017-10-24T02:51:42.277Z,10.90
2017-10-24T02:54:08.627Z,11.00
2017-10-24T02:56:35.574Z,11.00
2017-10-24T02:59:01.758Z,11.00
2017-10-24T03:01:27.970Z,11.10
2017-10-24T03:03:54.151Z,11.00
2017-10-24T03:06:21.104Z,11.00
2017-10-24T03:08:47.285Z,11.00
2017-10-24T03:11:13.517Z,11.10
2017-10-24T03:13:39.737Z,11.10
2017-10-24T03:16:05.969Z,11.20
2017-10-24T03:18:32.176Z,11.10
2017-10-24T03:20:58.562Z,11.20
2017-10-24T03:23:25.633Z,11.20
2017-10-24T03:25:51.848Z,11.20
2017-10-24T03:28:18.045Z,11.30
2017-10-24T03:30:44.266Z,11.40
2017-10-24T03:33:10.456Z,11.50
2017-10-24T03:35:36.831Z,11.40
2017-10-24T03:38:03.030Z,11.30
2017-10-24T03:40:29.324Z,11.20
2017-10-24T03:42:55.502Z,11.20
2017-10-24T03:45:21.729Z,11.20
2017-10-24T03:47:47.922Z,11.20
2017-10-24T03:50:14.141Z,11.20
2017-10-24T03:52:40.317Z,11.20
2017-10-24T03:55:06.637Z,11.20
2017-10-24T03:57:32.821Z,11.10
2017-10-24T03:59:59.034Z,11.00
2017-10-24T04:02:25.956Z,11.10
2017-10-24T04:04:52.182Z,11.10
2017-10-24T04:07:18.397Z,11.10
2017-10-24T04:12:18.298Z,11.00
2017-10-24T04:14:44.478Z,11.00
2017-10-24T04:17:10.720Z,10.90
2017-10-24T04:19:37.657Z,10.80
2017-10-24T04:22:03.889Z,10.80
2017-10-24T04:24:30.893Z,10.70
2017-10-24T04:26:57.136Z,10.70
2017-10-24T04:29:23.339Z,10.60
2017-10-24T04:31:49.768Z,10.50
2017-10-24T04:34:15.978Z,10.40
2017-10-24T04:36:42.208Z,10.40
2017-10-24T04:39:08.418Z,10.40
2017-10-24T04:41:34.629Z,10.40
2017-10-24T04:44:01.036Z,10.40
2017-10-24T04:46:27.217Z,10.40
2017-10-24T04:48:53.420Z,10.30
2017-10-24T04:51:20.336Z,10.10
2017-10-24T04:53:46.568Z,10.10
2017-10-24T04:56:12.772Z,10.10
2017-10-24T04:58:39.034Z,9.90
2017-10-24T05:01:05.225Z,9.90
2017-10-24T05:03:31.545Z,9.80
2017-10-24T05:05:57.934Z,9.80
2017-10-24T05:08:24.122Z,9.70
2017-10-24T05:10:50.330Z,9.70
2017-10-24T05:13:16.517Z,9.70
2017-10-24T05:15:42.829Z,9.70
2017-10-24T05:18:09.013Z,9.70
2017-10-24T05:20:35.213Z,9.80
2017-10-24T05:23:02.173Z,9.80
2017-10-24T05:25:30.856Z,9.70
2017-10-24T05:27:57.792Z,9.70
2017-10-24T05:30:24.740Z,9.60
2017-10-24T05:32:51.666Z,9.60
2017-10-24T05:35:18.706Z,9.60
2017-10-24T05:37:44.917Z,9.50
2017-10-24T05:40:12.435Z,9.60
2017-10-24T05:42:38.637Z,9.60
2017-10-24T05:45:05.589Z,9.60
2017-10-24T05:47:32.509Z,9.60
2017-10-24T05:49:58.713Z,9.60
2017-10-24T05:52:24.901Z,9.50
2017-10-24T05:54:51.148Z,9.60
2017-10-24T05:57:17.345Z,9.60
2017-10-24T05:59:44.293Z,9.80
2017-10-24T06:02:11.229Z,9.90
2017-10-24T06:04:38.177Z,9.90
2017-10-24T06:07:05.097Z,10.00
2017-10-24T06:09:31.592Z,10.00
2017-10-24T06:11:57.800Z,10.00
2017-10-24T06:14:24.394Z,10.00
2017-10-24T06:16:50.613Z,10.00
2017-10-24T06:19:16.838Z,10.10
2017-10-24T06:21:43.016Z,10.10
2017-10-24T06:24:09.402Z,10.10
2017-10-24T06:26:35.585Z,10.10
2017-10-24T06:29:01.789Z,10.00
2017-10-24T06:31:29.053Z,10.10
2017-10-24T06:33:55.263Z,10.10
2017-10-24T06:36:22.217Z,10.30
2017-10-24T06:38:49.222Z,10.40
2017-10-24T06:41:15.471Z,10.40
2017-10-24T06:43:41.679Z,10.50
2017-10-24T06:48:40.970Z,10.70
2017-10-24T06:51:07.185Z,10.80
2017-10-24T06:53:33.373Z,10.80
2017-10-24T06:55:59.577Z,10.90
2017-10-24T06:58:25.759Z,10.80
2017-10-24T07:00:51.981Z,10.90
2017-10-24T07:03:18.937Z,11.20
2017-10-24T07:05:52.166Z,11.20
2017-10-24T07:08:18.345Z,11.20
2017-10-24T07:10:45.438Z,11.20
2017-10-24T07:13:11.646Z,11.10
2017-10-24T07:15:37.835Z,11.20
2017-10-24T07:18:04.070Z,11.20
2017-10-24T07:20:31.012Z,11.20
2017-10-24T07:22:57.951Z,11.30
2017-10-24T07:25:24.869Z,11.30
2017-10-24T07:27:51.084Z,11.30
2017-10-24T07:30:17.286Z,11.40
2017-10-24T07:32:43.465Z,11.40
2017-10-24T07:35:09.669Z,11.60
2017-10-24T07:37:35.858Z,11.60
2017-10-24T07:40:02.095Z,11.70
2017-10-24T07:42:28.280Z,11.70
2017-10-24T07:44:54.484Z,11.70
2017-10-24T07:47:20.710Z,11.70
2017-10-24T07:49:46.918Z,11.70
2017-10-24T07:52:13.096Z,11.70
2017-10-24T07:54:40.038Z,11.90
2017-10-24T07:57:06.225Z,11.90
2017-10-24T07:59:32.546Z,11.90
2017-10-24T08:01:58.726Z,11.90
2017-10-24T08:04:24.922Z,12.00
2017-10-24T08:06:51.134Z,12.10
2017-10-24T08:09:17.329Z,12.10
2017-10-24T08:11:44.276Z,12.30
2017-10-24T08:14:11.206Z,12.30
2017-10-24T08:16:38.156Z,12.40
2017-10-24T08:19:05.085Z,12.50
2017-10-24T08:21:31.313Z,12.50
2017-10-24T08:23:57.497Z,12.60
2017-10-24T08:26:23.710Z,12.50
2017-10-24T08:28:49.896Z,12.50
2017-10-24T08:31:16.097Z,12.30
2017-10-24T08:33:42.297Z,12.20
2017-10-24T08:36:09.577Z,12.20
2017-10-24T08:38:35.773Z,12.20
2017-10-24T08:41:02.020Z,12.30
2017-10-24T08:43:28.274Z,12.30
2017-10-24T08:45:55.962Z,12.40
2017-10-24T08:48:22.897Z,12.40
2017-10-24T08:50:49.129Z,12.40
2017-10-24T08:53:15.326Z,12.40
2017-10-24T08:55:41.572Z,12.40
2017-10-24T08:58:07.765Z,12.40
2017-10-24T09:00:34.005Z,12.40
2017-10-24T09:03:00.221Z,12.50
2017-10-24T09:05:26.433Z,12.60
2017-10-24T09:07:52.622Z,12.60
2017-10-24T09:14:04.577Z,12.70
2017-10-24T09:16:37.738Z,12.70
2017-10-24T09:19:16.916Z,12.70
2017-10-24T09:21:43.148Z,12.70
2017-10-24T09:24:09.367Z,12.80
2017-10-24T09:26:42.464Z,13.00
2017-10-24T09:29:08.673Z,13.00
2017-10-24T09:31:34.897Z,12.90
2017-10-24T09:34:01.077Z,13.00
2017-10-24T09:36:29.285Z,13.00
2017-10-24T09:38:56.257Z,13.00
2017-10-24T09:41:22.481Z,13.00
2017-10-24T09:43:48.658Z,13.10
2017-10-24T09:46:14.871Z,13.10
2017-10-24T09:48:41.093Z,13.10
2017-10-24T09:51:18.393Z,13.20
2017-10-24T09:53:44.606Z,13.30
2017-10-24T09:59:10.525Z,13.30
2017-10-24T10:01:47.237Z,13.20
2017-10-24T10:04:13.453Z,13.20
2017-10-24T10:07:00.537Z,13.20
2017-10-24T10:09:26.756Z,13.30
2017-10-24T10:11:52.957Z,13.30
2017-10-24T10:14:19.196Z,13.50
2017-10-24T10:16:46.193Z,13.50
2017-10-24T10:19:12.450Z,13.40
2017-10-24T10:21:38.649Z,13.60
2017-10-24T10:24:04.890Z,13.60
2017-10-24T10:26:31.105Z,13.60
2017-10-24T10:28:57.337Z,13.60
2017-10-24T10:31:23.569Z,13.50
2017-10-24T10:33:49.750Z,13.50
2017-10-24T10:36:16.718Z,13.50
2017-10-24T10:38:42.916Z,13.50
2017-10-24T10:41:09.897Z,13.50
2017-10-24T10:43:36.090Z,13.50
2017-10-24T10:46:03.045Z,13.50
2017-10-24T10:48:29.246Z,13.50
2017-10-24T10:50:55.581Z,13.50
2017-10-24T10:53:22.500Z,13.40
2017-10-24T10:55:48.694Z,13.40
2017-10-24T10:58:14.930Z,13.40
2017-10-24T11:00:41.130Z,13.40
2017-10-24T11:03:07.333Z,13.50
2017-10-24T11:05:33.518Z,13.50
2017-10-24T11:07:59.728Z,13.40
2017-10-24T11:10:29.761Z,13.50
2017-10-24T11:12:55.982Z,13.60
2017-10-24T11:15:22.189Z,13.50
2017-10-24T11:17:48.398Z,13.40
2017-10-24T11:20:15.309Z,13.60
2017-10-24T11:22:41.517Z,13.50
2017-10-24T11:25:07.701Z,13.60
2017-10-24T11:27:34.657Z,13.60
2017-10-24T11:30:01.581Z,13.60
2017-10-24T11:32:27.789Z,13.60
2017-10-24T11:34:53.970Z,13.70
2017-10-24T11:37:20.170Z,13.80
2017-10-24T11:39:47.118Z,14.00
2017-10-24T11:42:14.083Z,13.90
2017-10-24T11:44:40.282Z,13.90
2017-10-24T11:47:07.206Z,14.10
2017-10-24T11:49:33.417Z,14.10
2017-10-24T11:51:59.597Z,14.00
2017-10-24T11:54:26.553Z,13.90
2017-10-24T11:56:52.734Z,13.90
2017-10-24T11:59:18.949Z,14.10
2017-10-24T12:01:45.165Z,14.00
2017-10-24T12:04:11.369Z,13.80
2017-10-24T12:06:37.549Z,13.90
2017-10-24T12:09:03.777Z,13.80
2017-10-24T12:11:29.953Z,13.60
2017-10-24T12:13:56.157Z,13.70
2017-10-24T12:16:23.073Z,13.60
2017-10-24T12:18:49.301Z,13.60
2017-10-24T12:21:15.494Z,13.60
2017-10-24T12:23:41.698Z,13.60
2017-10-24T12:26:08.044Z,13.70
2017-10-24T12:28:34.274Z,13.70
2017-10-24T12:31:00.461Z,13.90
2017-10-24T12:33:26.650Z,14.00
2017-10-24T12:35:52.880Z,14.00
2017-10-24T12:38:19.825Z,13.90
2017-10-24T12:40:46.105Z,13.90
2017-10-24T12:43:12.343Z,13.90
2017-10-24T12:45:38.585Z,14.00
2017-10-24T12:48:04.799Z,14.00
2017-10-24T12:50:34.952Z,14.00
2017-10-24T12:53:01.157Z,14.00
2017-10-24T12:55:27.389Z,14.10
2017-10-24T12:58:03.594Z,14.00
2017-10-24T13:00:29.834Z,14.00
2017-10-24T13:02:56.038Z,14.00
2017-10-24T13:05:25.256Z,13.90
2017-10-24T13:07:51.501Z,14.00
2017-10-24T13:10:18.494Z,14.20
2017-10-24T13:12:44.717Z,14.20
2017-10-24T13:15:10.965Z,14.20
2017-10-24T13:17:37.913Z,14.20
2017-10-24T13:20:04.902Z,14.10
2017-10-24T13:22:31.878Z,14.10
2017-10-24T13:24:58.806Z,14.10
2017-10-24T13:27:25.043Z,14.10
2017-10-24T13:29:51.253Z,14.10
2017-10-24T13:32:18.198Z,14.10
2017-10-24T13:34:45.153Z,14.10
2017-10-24T13:37:11.341Z,14.10
2017-10-24T13:39:37.553Z,14.10
2017-10-24T13:42:04.063Z,14.10
2017-10-24T13:44:30.273Z,14.20
2017-10-24T13:46:56.469Z,14.20
2017-10-24T13:49:22.666Z,14.10
2017-10-24T13:51:48.874Z,14.10
2017-10-24T13:54:15.062Z,14.10
2017-10-24T13:56:42.024Z,14.10
2017-10-24T13:59:08.210Z,14.10
2017-10-24T14:01:34.498Z,14.10
2017-10-24T14:04:00.705Z,14.10
2017-10-24T14:06:33.106Z,14.10
2017-10-24T14:09:05.466Z,14.10
2017-10-24T14:11:31.665Z,14.10
2017-10-24T14:13:58.626Z,14.30
2017-10-24T14:16:24.830Z,14.30
2017-10-24T14:18:51.033Z,14.30
2017-10-24T14:21:17.226Z,14.50
2017-10-24T14:23:43.436Z,14.60
2017-10-24T14:26:09.620Z,14.80
2017-10-24T14:28:35.846Z,14.80
2017-10-24T14:31:02.908Z,14.90
2017-10-24T14:33:29.109Z,15.00
2017-10-24T14:35:55.310Z,14.90
2017-10-24T14:38:21.696Z,14.90
2017-10-24T14:40:47.913Z,14.80
2017-10-24T14:43:14.125Z,14.70
2017-10-24T14:45:40.319Z,14.70
2017-10-24T14:48:06.550Z,14.70
2017-10-24T14:50:32.749Z,14.60
2017-10-24T14:52:59.705Z,14.60
2017-10-24T14:55:26.638Z,14.50
2017-10-24T14:57:53.586Z,14.50
2017-10-24T15:00:20.535Z,14.40
2017-10-24T15:02:47.499Z,14.40
2017-10-24T15:05:13.692Z,14.40
2017-10-24T15:07:39.910Z,14.40
2017-10-24T15:10:06.145Z,14.40
2017-10-24T15:12:32.383Z,14.30
2017-10-24T15:14:59.334Z,14.40
2017-10-24T15:17:26.274Z,14.40
2017-10-24T15:19:53.221Z,14.20
2017-10-24T15:22:20.153Z,14.20
2017-10-24T15:24:46.377Z,14.20
2017-10-24T15:27:12.602Z,14.20
2017-10-24T15:29:38.822Z,14.20
2017-10-24T15:32:05.081Z,14.20
2017-10-24T15:34:32.041Z,14.20
2017-10-24T15:36:58.254Z,14.20
2017-10-24T15:39:25.214Z,14.30
2017-10-24T15:41:51.425Z,14.20
2017-10-24T15:44:18.354Z,14.30
2017-10-24T15:46:44.560Z,14.20
2017-10-24T15:49:10.760Z,14.30
2017-10-24T15:51:37.002Z,14.30
2017-10-24T15:54:03.194Z,14.30
2017-10-24T15:56:30.188Z,14.30
2017-10-24T15:58:56.395Z,14.20
2017-10-24T16:01:22.625Z,14.20
2017-10-24T16:03:48.818Z,14.30
2017-10-24T16:06:15.775Z,14.20
2017-10-24T16:08:41.966Z,14.20
2017-10-24T16:11:08.189Z,14.20
2017-10-24T16:13:34.378Z,14.20
2017-10-24T16:16:00.582Z,14.10
2017-10-24T16:18:26.794Z,14.10
2017-10-24T16:20:53.745Z,13.90
2017-10-24T16:23:20.682Z,13.90
2017-10-24T16:25:47.666Z,13.90
2017-10-24T16:28:13.861Z,13.80
2017-10-24T16:30:40.833Z,13.80
2017-10-24T16:33:07.005Z,13.80
2017-10-24T16:35:33.205Z,13.70
2017-10-24T16:37:59.407Z,13.70
2017-10-24T16:40:25.613Z,13.70
2017-10-24T16:42:52.569Z,13.60
2017-10-24T16:45:19.505Z,13.60
2017-10-24T16:47:46.542Z,13.50
2017-10-24T16:50:12.741Z,13.40
2017-10-24T16:52:38.942Z,13.50
2017-10-24T16:55:05.121Z,13.40
2017-10-24T16:57:31.357Z,13.40
2017-10-24T16:59:58.285Z,13.40
2017-10-24T17:02:24.491Z,13.30
2017-10-24T17:04:50.933Z,13.40
2017-10-24T17:07:17.324Z,13.40
2017-10-24T17:09:43.523Z,13.30
2017-10-24T17:12:09.790Z,13.30
2017-10-24T17:14:36.001Z,13.30
2017-10-24T17:17:02.233Z,13.30
2017-10-24T17:19:28.469Z,13.30
2017-10-24T17:21:54.653Z,13.30
2017-10-24T17:24:20.854Z,13.30
2017-10-24T17:26:47.077Z,13.30
2017-10-24T17:29:13.289Z,13.40
2017-10-24T17:31:39.470Z,13.40
2017-10-24T17:34:05.690Z,13.40
2017-10-24T17:36:31.887Z,13.40
2017-10-24T17:38:58.113Z,13.40
2017-10-24T17:41:24.340Z,13.40
2017-10-24T17:43:50.541Z,13.40
2017-10-24T17:46:16.733Z,13.40
2017-10-24T17:48:42.946Z,13.40
2017-10-24T17:51:09.161Z,13.50
2017-10-24T17:53:35.355Z,13.50
2017-10-24T17:56:01.565Z,13.60
2017-10-24T17:58:28.497Z,13.70
2017-10-24T18:00:55.461Z,13.70
2017-10-24T18:03:22.381Z,13.70
2017-10-24T18:05:48.593Z,13.70
2017-10-24T18:08:14.772Z,13.70
2017-10-24T18:10:41.014Z,13.70
2017-10-24T18:13:07.202Z,13.70
2017-10-24T18:15:34.160Z,13.70
2017-10-24T18:18:01.093Z,13.70
2017-10-24T18:20:28.045Z,13.70
2017-10-24T18:22:54.976Z,13.70
2017-10-24T18:25:21.947Z,13.70
2017-10-24T18:27:48.182Z,13.70
2017-10-24T18:30:14.406Z,13.70
2017-10-24T18:32:40.630Z,13.80
2017-10-24T18:35:06.857Z,13.80
2017-10-24T18:37:33.051Z,13.80
2017-10-24T18:39:59.270Z,13.80
2017-10-24T18:42:25.540Z,13.90
2017-10-24T18:44:52.582Z,13.80
2017-10-24T18:47:18.821Z,13.70
2017-10-24T18:52:36.362Z,13.80
2017-10-24T18:55:02.611Z,13.80
2017-10-24T18:57:28.936Z,13.90
2017-10-24T18:59:55.161Z,13.80
2017-10-24T19:02:21.394Z,13.80
2017-10-24T19:04:48.379Z,13.80
2017-10-24T19:07:14.557Z,13.80
2017-10-24T19:12:31.687Z,13.90
2017-10-24T19:14:57.921Z,13.90
2017-10-24T19:17:24.120Z,14.00
2017-10-24T19:19:51.312Z,14.10
2017-10-24T19:22:17.506Z,14.00
2017-10-24T19:24:44.433Z,14.00
2017-10-24T19:27:10.638Z,14.00
2017-10-24T19:29:37.597Z,14.00
2017-10-24T19:32:03.828Z,14.00
2017-10-24T19:34:30.082Z,14.00
2017-10-24T19:36:56.301Z,14.00
2017-10-24T19:39:22.506Z,14.10
2017-10-24T19:41:48.741Z,14.10
2017-10-24T19:44:14.938Z,14.10
2017-10-24T19:46:41.314Z,14.10
2017-10-24T19:49:08.270Z,14.20
2017-10-24T19:51:35.242Z,14.30
2017-10-24T19:54:01.428Z,14.30
2017-10-24T19:56:27.647Z,14.30
2017-10-24T19:58:53.843Z,14.40
2017-10-24T20:01:20.066Z,14.40
2017-10-24T20:03:46.281Z,14.50
2017-10-24T20:06:12.533Z,14.50
2017-10-24T20:08:38.718Z,14.50
2017-10-24T20:11:05.664Z,14.60
2017-10-24T20:13:31.877Z,14.50
2017-10-24T20:15:58.836Z,14.60
2017-10-24T20:18:25.746Z,14.60
2017-10-24T20:20:51.969Z,14.60
2017-10-24T20:23:18.162Z,14.60
2017-10-24T20:25:44.372Z,14.70
2017-10-24T20:28:10.565Z,14.60
2017-10-24T20:30:36.757Z,14.60
2017-10-24T20:33:02.992Z,14.70
2017-10-24T20:35:29.184Z,14.60
2017-10-24T20:37:55.418Z,14.60
2017-10-24T20:40:21.645Z,14.60
2017-10-24T20:42:47.852Z,14.60
2017-10-24T20:45:14.785Z,14.60
2017-10-24T20:47:41.732Z,14.60
2017-10-24T20:50:08.664Z,14.60
2017-10-24T20:52:34.882Z,14.60
2017-10-24T20:55:01.277Z,14.60
2017-10-24T20:57:27.538Z,14.60
2017-10-24T20:59:53.725Z,14.70
2017-10-24T21:02:19.925Z,14.60
2017-10-24T21:04:46.883Z,14.70
2017-10-24T21:07:13.857Z,14.70
2017-10-24T21:09:40.046Z,14.70
2017-10-24T21:12:06.981Z,14.70
2017-10-24T21:14:33.933Z,14.70
2017-10-24T21:17:00.979Z,14.70
2017-10-24T21:19:27.924Z,14.80
2017-10-24T21:21:54.849Z,14.80
2017-10-24T21:24:21.083Z,14.80
2017-10-24T21:26:48.053Z,14.90
2017-10-24T21:29:15.009Z,15.00
2017-10-24T21:31:41.205Z,14.90
2017-10-24T21:34:07.482Z,14.90
2017-10-24T21:36:33.665Z,15.00
2017-10-24T21:38:59.944Z,15.00
2017-10-24T21:41:26.152Z,15.10
2017-10-24T21:43:52.329Z,15.10
2017-10-24T21:46:18.532Z,15.20
2017-10-24T21:48:44.725Z,15.20
2017-10-24T21:51:11.685Z,15.20
2017-10-24T21:53:38.006Z,15.20
2017-10-24T21:56:04.217Z,15.20
2017-10-24T21:58:31.205Z,15.20
2017-10-24T22:00:57.433Z,15.20
2017-10-24T22:03:23.649Z,15.20
2017-10-24T22:05:49.849Z,15.20
2017-10-24T22:08:16.773Z,15.30
2017-10-24T22:10:42.982Z,15.30
2017-10-24T22:13:09.169Z,15.30
2017-10-24T22:15:35.392Z,15.30
2017-10-24T22:18:01.565Z,15.30
2017-10-24T22:20:27.773Z,15.30
2017-10-24T22:22:53.954Z,15.30
2017-10-24T22:25:20.996Z,15.40
2017-10-24T22:27:47.282Z,15.30
2017-10-24T22:30:13.482Z,15.40
2017-10-24T22:32:39.669Z,15.40
2017-10-24T22:35:05.898Z,15.40
2017-10-24T22:37:32.089Z,15.40
2017-10-24T22:39:58.327Z,15.40
2017-10-24T22:42:24.520Z,15.50
2017-10-24T22:44:50.723Z,15.50
2017-10-24T22:47:17.660Z,15.50
2017-10-24T22:49:43.867Z,15.50
2017-10-24T22:52:10.081Z,15.50
2017-10-24T22:54:36.297Z,15.50
2017-10-24T22:57:02.479Z,15.50
2017-10-24T22:59:29.437Z,15.60
2017-10-24T23:01:56.389Z,15.60
2017-10-24T23:04:22.586Z,15.50
2017-10-24T23:06:48.792Z,15.60
2017-10-24T23:09:14.973Z,15.60
2017-10-24T23:11:41.200Z,15.50
2017-10-24T23:14:07.383Z,15.60
2017-10-24T23:16:33.588Z,15.60
2017-10-24T23:18:59.813Z,15.60
2017-10-24T23:21:26.009Z,15.60
2017-10-24T23:23:52.225Z,15.70
2017-10-24T23:26:19.209Z,15.60
2017-10-24T23:28:46.134Z,15.60
2017-10-24T23:31:12.345Z,15.60
2017-10-24T23:33:39.284Z,15.70
2017-10-24T23:36:06.237Z,15.60
2017-10-24T23:38:33.172Z,15.60
2017-10-24T23:41:00.140Z,15.50
2017-10-24T23:43:26.338Z,15.50
2017-10-24T23:45:53.366Z,15.40
2017-10-24T23:48:19.569Z,15.40
2017-10-24T23:50:45.749Z,15.30
2017-10-24T23:53:12.689Z,15.20
2017-10-24T23:55:39.606Z,15.20
2017-10-24T23:58:05.813Z,15.20
